Time;durP1;ratioP1;P1;durP2;ratioP2;P2;SDS_P1;SDS_P2;PMS_P1;PMS_P2;Temp;Humidity;BMP_temperature;BMP_pressure;BME280_temperature;BME280_humidity;BME280_pressure;Samples;Min_cycle;Max_cycle;Signal;HPM_P1;HPM_P2
2021/05/06 00:02:31;;;;;;;2.27;2.07;;;8.00;74.60;;;;;;5008446;28;20487;-46
2021/05/06 00:32:08;;;;;;;1.90;1.60;;;8.20;73.60;;;;;;5005213;28;20467;-46
2021/05/06 00:34:35;;;;;;;3.03;1.50;;;8.20;73.20;;;;;;5018743;28;20869;-46
2021/05/06 00:37:02;;;;;;;1.80;1.30;;;8.20;73.40;;;;;;5004944;28;20463;-46
2021/05/06 00:39:34;;;;;;;2.00;1.70;;;8.20;73.00;;;;;;5008118;28;20463;-46
2021/05/06 00:42:11;;;;;;;3.13;2.00;;;8.20;72.70;;;;;;5005354;28;20823;-46
2021/05/06 00:56:19;;;;;;;1.80;1.70;;;8.20;72.80;;;;;;5005877;28;20464;-46
2021/05/06 01:01:33;;;;;;;2.23;1.77;;;8.10;72.90;;;;;;5004538;28;20456;-46
2021/05/06 01:09:45;;;;;;;2.10;1.90;;;8.10;72.60;;;;;;4998887;28;20444;-46
2021/05/06 01:12:12;;;;;;;2.37;1.93;;;8.10;73.00;;;;;;5002209;28;20498;-46
2021/05/06 01:14:39;;;;;;;2.90;1.53;;;8.10;72.70;;;;;;5004584;28;20488;-46
2021/05/06 01:17:05;;;;;;;2.40;2.20;;;8.00;72.70;;;;;;5007523;28;20903;-46
2021/05/06 01:19:31;;;;;;;2.40;2.00;;;8.00;73.00;;;;;;5010130;28;20544;-46
2021/05/06 01:21:58;;;;;;;2.07;1.90;;;8.00;73.60;;;;;;5011856;28;20464;-46
2021/05/06 01:24:25;;;;;;;2.20;2.00;;;8.00;73.30;;;;;;5027773;28;20496;-46
2021/05/06 01:34:31;;;;;;;4.90;2.17;;;8.00;73.50;;;;;;5014644;28;20488;-46
2021/05/06 01:37:03;;;;;;;2.20;2.00;;;7.90;73.60;;;;;;5037814;28;20460;-46
2021/05/06 01:42:10;;;;;;;3.57;2.43;;;7.90;74.20;;;;;;5013381;28;20471;-46
2021/05/06 02:00:26;;;;;;;3.43;2.13;;;8.00;73.40;;;;;;5012753;28;20946;-46
2021/05/06 02:02:52;;;;;;;4.20;1.93;;;8.00;73.20;;;;;;5017576;28;20464;-46
2021/05/06 02:05:19;;;;;;;1.93;1.73;;;8.00;73.20;;;;;;5018716;28;20475;-46
2021/05/06 02:07:46;;;;;;;4.33;1.63;;;8.00;73.40;;;;;;5018671;28;20460;-46
2021/05/06 02:10:16;;;;;;;1.90;1.63;;;8.00;73.50;;;;;;5015865;28;20547;-46
2021/05/06 02:12:44;;;;;;;3.37;2.27;;;8.00;73.30;;;;;;5007515;28;20467;-46
2021/05/06 02:15:17;;;;;;;2.07;1.80;;;8.00;73.30;;;;;;5014654;28;20478;-46
2021/05/06 02:17:44;;;;;;;2.73;2.30;;;8.00;73.40;;;;;;5007875;28;20460;-46
2021/05/06 02:20:12;;;;;;;2.70;1.67;;;7.90;73.50;;;;;;5006793;28;20992;-46
2021/05/06 02:22:38;;;;;;;2.60;2.40;;;8.00;73.70;;;;;;5033668;28;20975;-46
2021/05/06 02:25:06;;;;;;;6.60;3.00;;;7.90;73.60;;;;;;5015301;28;20467;-46
2021/05/06 02:27:32;;;;;;;3.37;2.60;;;7.90;73.50;;;;;;5014980;28;20451;-46
2021/05/06 02:29:59;;;;;;;2.87;1.50;;;7.90;73.50;;;;;;5015435;28;20828;-46
2021/05/06 02:32:28;;;;;;;1.80;1.70;;;7.90;73.60;;;;;;5011957;28;21043;-46
2021/05/06 02:34:55;;;;;;;2.57;2.20;;;7.80;73.70;;;;;;5015533;28;21124;-46
2021/05/06 02:37:22;;;;;;;2.63;2.10;;;7.80;73.70;;;;;;5017122;28;20469;-46
2021/05/06 02:39:49;;;;;;;2.87;2.60;;;7.80;73.90;;;;;;5014095;28;20967;-46
2021/05/06 02:42:16;;;;;;;3.03;1.80;;;7.80;73.90;;;;;;5019971;28;20463;-46
2021/05/06 02:44:42;;;;;;;1.60;1.50;;;7.70;73.90;;;;;;5008537;28;20467;-46
2021/05/06 02:47:08;;;;;;;2.63;2.00;;;7.70;73.90;;;;;;5011594;28;20457;-45
2021/05/06 02:49:36;;;;;;;3.20;2.30;;;7.70;73.90;;;;;;5016268;28;20453;-45
2021/05/06 02:52:10;;;;;;;3.13;1.67;;;7.60;74.00;;;;;;5010526;28;20942;-46
2021/05/06 02:54:45;;;;;;;2.10;1.73;;;7.60;74.10;;;;;;5018395;28;21011;-46
2021/05/06 02:57:26;;;;;;;2.83;1.63;;;7.50;74.40;;;;;;5005691;28;20459;-46
2021/05/06 03:03:11;;;;;;;4.80;2.30;;;7.40;74.70;;;;;;5018689;28;20474;-46
2021/05/06 03:05:33;;;;;;;3.80;2.17;;;7.40;74.70;;;;;;5011149;28;21048;-46
2021/05/06 03:08:09;;;;;;;4.40;2.17;;;7.30;74.70;;;;;;5008902;28;20465;-46
2021/05/06 03:10:52;;;;;;;3.90;2.13;;;7.30;74.90;;;;;;5009383;28;20459;-46
2021/05/06 03:22:39;;;;;;;2.27;1.93;;;7.20;75.40;;;;;;5016399;28;20457;-46
2021/05/06 03:24:05;;;;;;;4.07;2.00;;;7.20;75.50;;;;;;5010970;28;20981;-46
2021/05/06 03:26:32;;;;;;;3.03;2.53;;;7.20;75.60;;;;;;5017097;28;20462;-46
2021/05/06 03:29:06;;;;;;;3.93;2.20;;;7.10;75.80;;;;;;5014439;28;20460;-47
2021/05/06 03:43:07;;;;;;;2.50;2.30;;;7.00;76.20;;;;;;5015663;28;20474;-46
2021/05/06 04:18:56;;;;;;;5.63;3.17;;;7.00;76.60;;;;;;5008259;28;20466;-46
2021/05/06 04:37:37;;;;;;;5.23;3.80;;;7.10;76.60;;;;;;5017276;28;20960;-46
2021/05/06 04:40:10;;;;;;;5.30;3.70;;;7.20;76.40;;;;;;5013151;28;20457;-46
2021/05/06 04:56:08;;;;;;;4.93;3.03;;;7.20;76.60;;;;;;5008802;28;21023;-45
2021/05/06 05:06:24;;;;;;;4.33;3.47;;;7.30;76.60;;;;;;5013520;28;20470;-44
2021/05/06 05:14:12;;;;;;;6.60;3.47;;;7.40;76.30;;;;;;5011323;28;20489;-45
2021/05/06 05:27:09;;;;;;;4.60;3.13;;;7.50;76.50;;;;;;5008535;28;20460;-45
2021/05/06 05:29:36;;;;;;;4.23;3.10;;;7.50;76.40;;;;;;5014597;28;20460;-44
2021/05/06 05:32:02;;;;;;;7.30;3.40;;;7.50;76.10;;;;;;5010405;28;20454;-45
2021/05/06 05:34:33;;;;;;;5.63;3.90;;;7.60;76.10;;;;;;5012276;28;20498;-45
2021/05/06 05:37:00;;;;;;;5.20;3.23;;;7.60;76.10;;;;;;5017694;28;20455;-45
2021/05/06 05:47:54;;;;;;;5.07;3.70;;;7.70;76.00;;;;;;5014017;28;20550;-44
2021/05/06 05:55:35;;;;;;;6.47;3.57;;;7.90;75.50;;;;;;5012928;28;20492;-44
2021/05/06 05:58:01;;;;;;;4.53;2.70;;;7.90;75.40;;;;;;5009601;28;20464;-45
2021/05/06 06:00:27;;;;;;;4.43;3.50;;;8.00;75.20;;;;;;5016923;28;20579;-44
2021/05/06 06:02:56;;;;;;;6.70;3.13;;;8.10;75.00;;;;;;5013527;28;20974;-44
2021/05/06 06:05:23;;;;;;;4.50;3.60;;;8.10;75.00;;;;;;5014843;28;20469;-45
2021/05/06 06:07:50;;;;;;;4.63;3.33;;;8.20;74.60;;;;;;5009406;28;20463;-45
2021/05/06 06:10:16;;;;;;;6.80;3.67;;;8.20;74.50;;;;;;5005963;28;20467;-44
2021/05/06 06:12:43;;;;;;;11.47;3.13;;;8.30;74.20;;;;;;5005127;28;20530;-44
2021/05/06 06:17:54;;;;;;;3.40;2.40;;;8.40;74.00;;;;;;5013650;28;20491;-45
2021/05/06 06:20:21;;;;;;;4.67;2.57;;;8.40;73.90;;;;;;5026744;28;20492;-45
2021/05/06 06:22:47;;;;;;;5.57;2.43;;;8.40;74.10;;;;;;5027441;28;20546;-44
2021/05/06 06:25:14;;;;;;;5.37;2.63;;;8.50;74.40;;;;;;5016665;28;21226;-44
2021/05/06 06:27:40;;;;;;;3.40;2.60;;;8.40;74.40;;;;;;5013488;28;20459;-44
2021/05/06 06:30:11;;;;;;;3.33;2.40;;;8.50;75.10;;;;;;5012645;28;20461;-45
2021/05/06 06:32:37;;;;;;;4.33;2.53;;;8.50;74.40;;;;;;5017735;28;20460;-45
2021/05/06 06:35:04;;;;;;;4.30;3.13;;;8.50;74.70;;;;;;5017527;28;20498;-45
2021/05/06 06:37:30;;;;;;;2.90;2.23;;;8.50;74.60;;;;;;5028451;28;20459;-44
2021/05/06 06:39:57;;;;;;;4.47;2.70;;;8.50;75.40;;;;;;5015459;28;20459;-45
2021/05/06 06:42:24;;;;;;;3.67;2.27;;;8.60;75.30;;;;;;5010970;28;20467;-44
2021/05/06 06:44:50;;;;;;;5.07;3.13;;;8.60;75.00;;;;;;5007191;28;20452;-45
2021/05/06 06:47:17;;;;;;;4.37;2.80;;;8.60;74.30;;;;;;5021205;28;21007;-44
2021/05/06 06:49:45;;;;;;;4.17;2.70;;;8.60;74.80;;;;;;5010887;28;20813;-45
2021/05/06 06:52:11;;;;;;;5.23;2.87;;;8.60;74.90;;;;;;5016950;28;20836;-44
2021/05/06 06:54:38;;;;;;;3.83;2.63;;;8.60;75.00;;;;;;5008755;28;20918;-44
2021/05/06 06:57:05;;;;;;;4.93;2.50;;;8.60;75.10;;;;;;5009346;28;20825;-44
2021/05/06 06:59:31;;;;;;;4.00;2.33;;;8.60;74.90;;;;;;5006963;28;21080;-44
2021/05/06 07:01:57;;;;;;;5.10;2.60;;;8.70;75.20;;;;;;5010543;28;20461;-46
2021/05/06 07:04:24;;;;;;;2.90;2.33;;;8.70;75.10;;;;;;5010884;28;20512;-46
2021/05/06 07:06:51;;;;;;;5.73;2.40;;;8.80;74.50;;;;;;5013596;28;20474;-46
2021/05/06 07:09:19;;;;;;;3.00;2.50;;;8.90;73.90;;;;;;5004512;28;20558;-46
2021/05/06 07:11:45;;;;;;;5.37;2.90;;;8.90;73.50;;;;;;5007126;28;20993;-45
2021/05/06 07:14:11;;;;;;;5.90;2.90;;;8.90;73.60;;;;;;5000905;28;20518;-45
2021/05/06 07:16:37;;;;;;;4.67;3.07;;;8.90;73.60;;;;;;4997720;28;20480;-46
2021/05/06 07:19:05;;;;;;;4.07;2.83;;;9.00;73.20;;;;;;5008414;28;20459;-46
2021/05/06 07:21:32;;;;;;;11.70;6.57;;;9.00;73.20;;;;;;5009070;28;20880;-46
2021/05/06 07:23:58;;;;;;;6.53;4.97;;;9.00;73.20;;;;;;5012838;28;20528;-46
2021/05/06 07:26:28;;;;;;;3.33;2.97;;;9.00;73.00;;;;;;5009729;28;20500;-46
2021/05/06 07:28:56;;;;;;;5.40;3.60;;;9.00;73.20;;;;;;5013328;28;21017;-46
2021/05/06 07:31:27;;;;;;;6.47;3.53;;;9.10;73.30;;;;;;5023311;28;20969;-46
2021/05/06 07:33:56;;;;;;;4.57;3.27;;;9.20;73.00;;;;;;5015994;28;20545;-46
2021/05/06 07:36:26;;;;;;;2.83;2.43;;;9.20;72.60;;;;;;5009584;28;20472;-46
2021/05/06 07:38:56;;;;;;;3.43;3.13;;;9.30;72.70;;;;;;5010450;28;20457;-46
2021/05/06 07:41:25;;;;;;;5.03;4.03;;;9.30;72.40;;;;;;5010254;28;21162;-46
2021/05/06 07:43:55;;;;;;;3.50;3.00;;;9.40;71.90;;;;;;5006372;28;20948;-46
2021/05/06 07:46:24;;;;;;;4.40;3.00;;;9.50;71.80;;;;;;5009018;28;20459;-46
2021/05/06 07:48:55;;;;;;;4.53;2.90;;;9.50;71.00;;;;;;5014243;28;20463;-46
2021/05/06 07:51:26;;;;;;;4.87;2.53;;;9.60;70.90;;;;;;5010825;28;20461;-46
2021/05/06 07:54:06;;;;;;;6.40;2.83;;;9.70;70.70;;;;;;5016102;28;20960;-46
2021/05/06 07:56:40;;;;;;;3.40;3.00;;;9.70;70.50;;;;;;4998153;28;20463;-46
2021/05/06 07:59:06;;;;;;;5.07;3.47;;;9.70;71.00;;;;;;5011149;28;20463;-46
2021/05/06 08:01:33;;;;;;;5.07;3.17;;;9.70;70.70;;;;;;5005994;28;20539;-46
2021/05/06 08:03:59;;;;;;;3.30;3.00;;;9.70;70.60;;;;;;5009872;28;20479;-46
2021/05/06 08:06:26;;;;;;;3.23;2.93;;;9.80;69.90;;;;;;5008690;28;20464;-46
2021/05/06 08:08:52;;;;;;;4.17;2.83;;;9.80;69.80;;;;;;5011082;28;20544;-46
2021/05/06 08:11:21;;;;;;;5.00;2.50;;;9.80;69.90;;;;;;5010804;28;20530;-46
2021/05/06 08:13:47;;;;;;;4.87;3.03;;;9.90;69.60;;;;;;5008834;28;20937;-46
2021/05/06 08:16:13;;;;;;;6.60;3.37;;;10.00;68.50;;;;;;5009431;28;20567;-46
2021/05/06 08:18:40;;;;;;;5.33;3.00;;;10.00;68.80;;;;;;5009191;28;20502;-46
2021/05/06 08:21:07;;;;;;;4.10;3.33;;;10.10;68.50;;;;;;5010834;28;20551;-46
2021/05/06 08:23:35;;;;;;;4.23;3.00;;;10.10;68.30;;;;;;4999987;28;20931;-46
2021/05/06 08:26:01;;;;;;;6.80;2.87;;;10.10;68.60;;;;;;5018871;28;20462;-46
2021/05/06 08:28:48;;;;;;;5.90;3.33;;;10.10;68.40;;;;;;5005519;28;20456;-46
2021/05/06 08:31:14;;;;;;;4.97;2.57;;;10.10;68.10;;;;;;5006782;28;20455;-46
2021/05/06 08:33:40;;;;;;;4.07;2.63;;;10.20;68.10;;;;;;5012531;28;20871;-47
2021/05/06 08:36:07;;;;;;;3.30;3.00;;;10.20;68.40;;;;;;5016844;28;20977;-47
2021/05/06 08:38:34;;;;;;;6.70;4.23;;;10.30;67.80;;;;;;5003651;28;20455;-46
2021/05/06 08:41:01;;;;;;;4.10;3.23;;;10.30;67.00;;;;;;5010380;28;20457;-46
2021/05/06 08:43:32;;;;;;;4.10;3.13;;;10.40;66.90;;;;;;5006250;28;20511;-47
2021/05/06 08:45:59;;;;;;;4.40;3.17;;;10.50;67.00;;;;;;5008327;28;20794;-47
2021/05/06 08:48:27;;;;;;;5.07;3.43;;;10.60;66.60;;;;;;5009394;28;20489;-47
2021/05/06 08:50:54;;;;;;;3.30;3.07;;;10.60;65.90;;;;;;5028231;28;20530;-46
2021/05/06 08:53:22;;;;;;;7.90;3.13;;;10.60;66.50;;;;;;5009038;28;20463;-46
2021/05/06 08:55:49;;;;;;;5.23;3.30;;;10.60;66.50;;;;;;5010305;28;20497;-47
2021/05/06 08:58:15;;;;;;;4.57;3.23;;;10.60;65.90;;;;;;5004788;28;20461;-47
2021/05/06 09:00:42;;;;;;;5.53;3.10;;;10.70;66.00;;;;;;5009325;28;20495;-47
2021/05/06 09:03:09;;;;;;;3.40;2.70;;;10.80;65.50;;;;;;5005707;28;20542;-47
2021/05/06 09:05:56;;;;;;;9.47;2.90;;;10.80;65.60;;;;;;5006696;28;20556;-46
2021/05/06 09:08:46;;;;;;;3.13;2.90;;;10.80;65.60;;;;;;5011194;28;20461;-47
2021/05/06 09:11:14;;;;;;;4.10;2.63;;;10.90;64.80;;;;;;5013780;28;20463;-46
2021/05/06 09:13:41;;;;;;;3.43;2.77;;;11.00;64.60;;;;;;5001035;28;20457;-47
2021/05/06 09:16:08;;;;;;;5.20;2.83;;;11.10;63.70;;;;;;5007667;28;20480;-46
2021/05/06 09:18:43;;;;;;;3.60;2.80;;;11.20;63.80;;;;;;5014215;28;20836;-47
2021/05/06 09:21:29;;;;;;;10.90;2.90;;;11.20;64.20;;;;;;5006368;28;20826;-47
2021/05/06 09:24:22;;;;;;;3.40;2.83;;;11.30;64.60;;;;;;5013910;28;20494;-47
2021/05/06 09:26:56;;;;;;;5.17;2.67;;;11.40;62.40;;;;;;5011023;28;20476;-47
2021/05/06 09:29:32;;;;;;;5.97;3.13;;;11.40;62.10;;;;;;5010651;28;20460;-46
2021/05/06 09:32:22;;;;;;;4.10;2.70;;;11.60;62.40;;;;;;5008796;28;20890;-47
2021/05/06 09:34:53;;;;;;;3.23;2.40;;;12.10;61.00;;;;;;5002372;28;20888;-47
2021/05/06 09:37:23;;;;;;;5.73;3.07;;;12.70;58.60;;;;;;5000869;28;20467;-46
2021/05/06 09:40:02;;;;;;;2.90;2.60;;;13.10;58.20;;;;;;5006605;28;20993;-47
2021/05/06 09:42:51;;;;;;;6.83;2.70;;;13.20;58.40;;;;;;5000511;28;21114;-47
2021/05/06 09:45:22;;;;;;;3.97;3.07;;;13.20;58.50;;;;;;5008737;28;20558;-45
2021/05/06 09:48:15;;;;;;;7.30;3.20;;;13.30;58.60;;;;;;5012644;28;20551;-46
2021/05/06 09:50:46;;;;;;;5.63;3.03;;;13.30;58.60;;;;;;5014673;28;20455;-47
2021/05/06 09:53:14;;;;;;;4.40;2.63;;;13.60;58.50;;;;;;5004826;28;20474;-46
2021/05/06 09:55:43;;;;;;;3.43;2.47;;;14.00;56.40;;;;;;5009369;28;20727;-47
2021/05/06 09:58:22;;;;;;;3.20;2.20;;;14.30;55.20;;;;;;5011213;28;20465;-47
2021/05/06 10:00:50;;;;;;;3.77;2.50;;;14.40;54.70;;;;;;5012401;28;20459;-46
2021/05/06 10:03:20;;;;;;;3.10;2.83;;;14.60;54.20;;;;;;5011983;28;20455;-47
2021/05/06 10:05:48;;;;;;;8.97;4.53;;;14.60;53.50;;;;;;5019408;28;20471;-46
2021/05/06 10:08:16;;;;;;;5.83;2.90;;;14.50;53.50;;;;;;5015150;28;20456;-45
2021/05/06 10:10:43;;;;;;;3.07;2.73;;;14.30;54.30;;;;;;5017091;28;20464;-45
2021/05/06 10:13:10;;;;;;;5.77;2.90;;;14.20;53.90;;;;;;5008955;28;20486;-45
2021/05/06 10:15:41;;;;;;;9.10;3.37;;;14.20;54.10;;;;;;5012839;28;20488;-45
2021/05/06 10:18:08;;;;;;;3.93;2.83;;;14.10;54.30;;;;;;5013624;28;20463;-46
2021/05/06 10:20:35;;;;;;;3.13;2.67;;;14.00;54.90;;;;;;5005929;28;20870;-46
2021/05/06 10:23:03;;;;;;;2.73;2.53;;;13.70;55.80;;;;;;5010450;28;20491;-46
2021/05/06 10:25:29;;;;;;;7.70;2.70;;;13.60;55.90;;;;;;5016677;28;20456;-46
2021/05/06 10:27:57;;;;;;;5.47;2.57;;;13.80;55.50;;;;;;5013624;28;20464;-47
2021/05/06 10:30:23;;;;;;;5.03;3.30;;;13.90;55.10;;;;;;5005348;28;20467;-46
2021/05/06 10:32:50;;;;;;;3.37;3.10;;;14.20;54.60;;;;;;5013650;28;20516;-47
2021/05/06 10:35:26;;;;;;;7.00;3.13;;;14.50;54.90;;;;;;5013813;28;20952;-46
2021/05/06 10:37:58;;;;;;;3.30;2.80;;;14.80;52.50;;;;;;5014887;28;20949;-45
2021/05/06 10:40:37;;;;;;;5.00;3.20;;;14.90;51.80;;;;;;5009241;28;20511;-45
2021/05/06 10:43:20;;;;;;;5.77;3.70;;;15.00;52.20;;;;;;5014330;28;20488;-47
2021/05/06 10:46:00;;;;;;;2.70;2.40;;;14.90;51.60;;;;;;5007084;28;21085;-47
2021/05/06 10:48:56;;;;;;;3.03;2.73;;;14.90;50.90;;;;;;5011257;28;20894;-47
2021/05/06 10:51:41;;;;;;;2.97;2.20;;;14.90;50.50;;;;;;5008184;28;20495;-46
2021/05/06 10:54:27;;;;;;;4.77;2.97;;;14.80;50.50;;;;;;5011858;28;20487;-46
2021/05/06 10:56:58;;;;;;;3.37;3.07;;;14.70;51.10;;;;;;5012131;28;20511;-46
2021/05/06 10:59:29;;;;;;;3.37;2.40;;;14.60;51.50;;;;;;5011774;28;20821;-46
2021/05/06 11:01:56;;;;;;;4.43;3.03;;;14.70;51.80;;;;;;5007475;28;20460;-46
2021/05/06 11:04:42;;;;;;;3.00;2.80;;;14.70;51.70;;;;;;5006072;28;20531;-46
2021/05/06 11:07:15;;;;;;;3.10;2.73;;;14.70;51.90;;;;;;5024442;28;20464;-46
2021/05/06 11:09:42;;;;;;;4.93;3.10;;;14.80;52.10;;;;;;5010007;28;20851;-46
2021/05/06 11:12:15;;;;;;;5.83;3.27;;;14.70;50.90;;;;;;5009703;28;20949;-46
2021/05/06 11:15:03;;;;;;;5.30;3.20;;;14.70;51.10;;;;;;5006743;28;21013;-46
2021/05/06 11:17:32;;;;;;;4.27;3.30;;;14.60;52.20;;;;;;5007837;28;20447;-46
2021/05/06 11:20:00;;;;;;;3.47;3.23;;;14.50;51.80;;;;;;5010826;28;20454;-46
2021/05/06 11:22:41;;;;;;;5.53;3.87;;;14.30;51.90;;;;;;5002844;28;20487;-45
2021/05/06 11:25:47;;;;;;;3.30;3.00;;;14.20;52.80;;;;;;5008911;28;20471;-45
2021/05/06 11:28:15;;;;;;;3.87;3.57;;;14.00;53.70;;;;;;5009140;28;20543;-45
2021/05/06 11:30:57;;;;;;;3.43;3.00;;;14.10;54.50;;;;;;5008398;28;20452;-45
2021/05/06 11:33:27;;;;;;;4.37;3.40;;;14.40;53.20;;;;;;5010846;28;20478;-45
2021/05/06 11:36:17;;;;;;;4.40;3.40;;;14.50;52.50;;;;;;5026130;28;20502;-45
2021/05/06 11:39:04;;;;;;;4.80;3.50;;;14.70;52.60;;;;;;5008869;28;20543;-45
2021/05/06 11:41:34;;;;;;;3.53;3.23;;;14.80;51.80;;;;;;5010356;28;20461;-45
2021/05/06 11:44:05;;;;;;;3.80;3.03;;;14.80;52.50;;;;;;5004794;28;21057;-45
2021/05/06 11:46:39;;;;;;;6.00;3.80;;;14.80;52.30;;;;;;5009522;28;20452;-45
2021/05/06 11:49:12;;;;;;;4.77;3.40;;;14.80;52.50;;;;;;5009412;28;20824;-45
2021/05/06 11:51:44;;;;;;;3.47;3.17;;;14.70;52.20;;;;;;5006648;28;20495;-45
2021/05/06 11:54:18;;;;;;;3.43;3.13;;;14.50;52.90;;;;;;5011122;28;20494;-45
2021/05/06 11:57:01;;;;;;;6.33;3.40;;;14.30;52.70;;;;;;5010820;28;20483;-45
2021/05/06 11:59:29;;;;;;;6.67;3.70;;;14.10;53.20;;;;;;5012882;28;20829;-46
2021/05/06 12:02:05;;;;;;;5.63;3.00;;;13.90;53.40;;;;;;5004393;28;20946;-45
2021/05/06 12:04:37;;;;;;;3.83;3.27;;;13.90;53.60;;;;;;5021085;28;20484;-45
2021/05/06 12:07:17;;;;;;;3.93;3.30;;;13.70;54.20;;;;;;5015052;28;20560;-45
2021/05/06 12:09:44;;;;;;;5.97;3.23;;;13.50;54.60;;;;;;5010662;28;20470;-45
2021/05/06 12:12:20;;;;;;;5.40;3.30;;;13.40;54.90;;;;;;5012322;28;20908;-45
2021/05/06 12:14:49;;;;;;;5.47;3.80;;;13.40;55.60;;;;;;5003297;28;20616;-45
2021/05/06 12:17:21;;;;;;;3.57;3.23;;;13.40;55.80;;;;;;5019639;28;20506;-45
2021/05/06 12:19:49;;;;;;;3.60;3.27;;;13.20;55.80;;;;;;5005576;28;20464;-45
2021/05/06 12:22:17;;;;;;;8.90;3.73;;;13.10;55.70;;;;;;5010266;28;20829;-45
2021/05/06 12:24:48;;;;;;;3.57;3.13;;;13.00;56.30;;;;;;5004556;28;20457;-45
2021/05/06 12:27:20;;;;;;;5.13;4.60;;;13.00;56.60;;;;;;5005457;28;20473;-46
2021/05/06 12:29:49;;;;;;;3.80;3.27;;;12.90;56.90;;;;;;5009554;28;20465;-46
2021/05/06 12:32:20;;;;;;;4.23;3.90;;;12.90;56.80;;;;;;5006641;28;20456;-46
2021/05/06 12:34:49;;;;;;;4.40;4.10;;;12.90;57.00;;;;;;5010357;28;21049;-46
2021/05/06 12:37:16;;;;;;;5.70;4.27;;;12.90;56.70;;;;;;5006391;28;20535;-46
2021/05/06 12:39:47;;;;;;;5.83;4.10;;;12.80;56.70;;;;;;5007143;28;20461;-46
2021/05/06 12:42:14;;;;;;;4.37;3.97;;;12.80;56.60;;;;;;5002613;28;20500;-46
2021/05/06 12:44:47;;;;;;;5.97;4.33;;;12.80;57.60;;;;;;5009890;28;20501;-46
2021/05/06 12:47:26;;;;;;;8.73;4.43;;;12.70;57.50;;;;;;5010768;28;20519;-46
2021/05/06 12:50:12;;;;;;;5.53;3.80;;;12.70;57.50;;;;;;5005883;28;20891;-46
2021/05/06 12:52:40;;;;;;;4.63;3.40;;;12.60;57.50;;;;;;5007949;28;20551;-46
2021/05/06 12:55:26;;;;;;;3.57;3.27;;;12.50;57.50;;;;;;5003052;28;20488;-46
2021/05/06 12:58:13;;;;;;;5.70;3.70;;;12.40;57.70;;;;;;5007154;28;20858;-46
2021/05/06 13:00:44;;;;;;;4.00;3.57;;;12.30;58.30;;;;;;5011080;28;20456;-46
2021/05/06 13:03:13;;;;;;;4.23;3.50;;;12.30;58.50;;;;;;5013704;28;20964;-46
2021/05/06 13:05:48;;;;;;;5.30;3.50;;;12.30;58.50;;;;;;5010098;28;20460;-46
2021/05/06 13:08:15;;;;;;;3.83;3.40;;;12.30;59.70;;;;;;5009954;28;21003;-46
2021/05/06 13:10:47;;;;;;;7.60;4.40;;;12.30;60.70;;;;;;5009269;28;20864;-46
2021/05/06 13:13:38;;;;;;;4.40;4.00;;;12.30;60.90;;;;;;5002920;28;20518;-46
2021/05/06 13:16:09;;;;;;;3.70;3.30;;;12.30;61.40;;;;;;5011575;28;20554;-46
2021/05/06 13:18:38;;;;;;;4.07;3.10;;;12.30;62.10;;;;;;5004634;28;20468;-46
2021/05/06 13:21:05;;;;;;;4.70;3.47;;;12.30;62.80;;;;;;5023002;28;20476;-46
2021/05/06 13:23:35;;;;;;;4.87;3.60;;;12.20;64.40;;;;;;5008235;28;20465;-45
2021/05/06 13:26:05;;;;;;;5.00;2.80;;;12.20;64.30;;;;;;5013922;28;20457;-46
2021/05/06 13:28:34;;;;;;;3.73;3.03;;;12.20;64.30;;;;;;5012459;28;20551;-44
2021/05/06 13:31:10;;;;;;;4.13;3.00;;;12.20;63.10;;;;;;5022415;28;20476;-46
2021/05/06 13:33:38;;;;;;;4.43;2.73;;;12.10;63.10;;;;;;5016923;28;20453;-46
2021/05/06 13:36:08;;;;;;;4.73;3.00;;;12.10;64.00;;;;;;5010388;28;20519;-46
2021/05/06 13:39:03;;;;;;;3.70;3.40;;;12.10;64.40;;;;;;5009478;28;20532;-46
2021/05/06 13:41:33;;;;;;;4.20;2.90;;;12.10;65.00;;;;;;5009885;28;20552;-47
2021/05/06 13:44:02;;;;;;;5.37;4.07;;;12.00;65.10;;;;;;5010437;28;20949;-46
2021/05/06 13:46:30;;;;;;;4.80;4.30;;;12.00;66.40;;;;;;5009363;28;20486;-45
2021/05/06 13:49:00;;;;;;;8.13;4.17;;;12.00;67.40;;;;;;5011511;28;20527;-45
2021/05/06 13:51:28;;;;;;;6.37;4.17;;;12.00;68.10;;;;;;5011575;28;20465;-45
2021/05/06 13:53:55;;;;;;;5.63;5.07;;;12.00;68.50;;;;;;5010750;28;20451;-45
2021/05/06 13:56:22;;;;;;;5.73;4.70;;;12.00;68.60;;;;;;5014159;28;21085;-45
2021/05/06 13:58:49;;;;;;;4.70;4.30;;;11.90;69.50;;;;;;5024769;28;21204;-45
2021/05/06 14:01:16;;;;;;;6.23;4.87;;;12.00;70.50;;;;;;5005410;28;20460;-45
2021/05/06 14:03:42;;;;;;;7.13;4.77;;;11.90;70.60;;;;;;5007845;28;20456;-45
2021/05/06 14:06:09;;;;;;;6.93;4.73;;;11.90;70.50;;;;;;5015359;28;21092;-45
2021/05/06 14:08:36;;;;;;;6.60;6.00;;;11.90;71.00;;;;;;5013591;28;20457;-45
2021/05/06 14:11:04;;;;;;;7.00;5.27;;;11.90;71.60;;;;;;5013365;28;20453;-45
2021/05/06 14:13:31;;;;;;;7.93;5.67;;;11.90;72.20;;;;;;5014329;28;20477;-45
2021/05/06 14:15:58;;;;;;;6.67;5.83;;;11.90;72.40;;;;;;5008630;28;20523;-46
2021/05/06 14:18:25;;;;;;;6.90;6.00;;;11.90;73.20;;;;;;5009648;28;20792;-46
2021/05/06 14:20:53;;;;;;;7.20;6.20;;;11.90;73.60;;;;;;5017497;28;20443;-46
2021/05/06 14:23:21;;;;;;;7.03;5.63;;;12.00;73.60;;;;;;5006209;28;20471;-46
2021/05/06 14:25:48;;;;;;;6.57;5.90;;;12.00;73.90;;;;;;5011086;28;20464;-45
2021/05/06 14:28:14;;;;;;;7.07;5.70;;;12.10;73.60;;;;;;5010907;28;21001;-46
2021/05/06 14:30:40;;;;;;;7.20;6.40;;;12.10;73.70;;;;;;5015056;28;20453;-46
2021/05/06 14:33:07;;;;;;;6.83;5.60;;;12.10;74.40;;;;;;5014646;28;21004;-46
2021/05/06 14:35:34;;;;;;;9.63;6.20;;;12.10;74.70;;;;;;5009514;28;20571;-46
2021/05/06 14:38:01;;;;;;;9.73;6.90;;;12.10;74.90;;;;;;5010635;28;21938;-46
2021/05/06 14:40:28;;;;;;;7.80;7.00;;;12.00;74.90;;;;;;5007869;28;20591;-46
2021/05/06 14:42:54;;;;;;;9.30;7.30;;;11.80;75.10;;;;;;5006439;28;20547;-46
2021/05/06 14:45:20;;;;;;;6.47;5.63;;;11.80;75.90;;;;;;5009031;28;20457;-45
2021/05/06 14:47:47;;;;;;;6.40;5.63;;;11.80;76.20;;;;;;5013776;28;20495;-45
2021/05/06 14:50:15;;;;;;;6.40;5.30;;;11.70;75.80;;;;;;5013247;28;20467;-46
2021/05/06 14:52:41;;;;;;;5.83;5.20;;;11.60;75.60;;;;;;5011198;28;20464;-46
2021/05/06 14:55:10;;;;;;;5.97;5.40;;;11.50;76.10;;;;;;5011576;28;20728;-46
2021/05/06 14:57:38;;;;;;;6.90;5.90;;;11.50;76.70;;;;;;5011772;28;20551;-46
2021/05/06 15:00:06;;;;;;;7.93;5.50;;;11.50;77.00;;;;;;5007108;28;20458;-46
2021/05/06 15:02:32;;;;;;;6.03;5.40;;;11.50;77.40;;;;;;5005968;28;21167;-46
2021/05/06 15:04:59;;;;;;;9.37;5.90;;;11.50;77.60;;;;;;5010296;28;20477;-46
2021/05/06 15:07:25;;;;;;;7.77;6.53;;;11.50;77.50;;;;;;5011461;28;20977;-45
2021/05/06 15:09:52;;;;;;;6.30;5.70;;;11.50;77.90;;;;;;5004365;28;20959;-46
2021/05/06 15:12:18;;;;;;;7.27;6.53;;;11.50;78.00;;;;;;5013977;28;20451;-46
2021/05/06 15:14:44;;;;;;;7.70;6.43;;;11.50;77.90;;;;;;5009493;28;21048;-46
2021/05/06 15:17:13;;;;;;;7.90;6.40;;;11.40;78.30;;;;;;5009941;28;20451;-46
2021/05/06 15:19:39;;;;;;;6.50;5.63;;;11.40;77.90;;;;;;5008745;28;20905;-46
2021/05/06 15:22:05;;;;;;;6.67;5.83;;;11.40;77.70;;;;;;5006791;28;20943;-46
2021/05/06 15:24:44;;;;;;;7.10;6.43;;;11.30;77.90;;;;;;5001547;28;20471;-46
2021/05/06 15:27:10;;;;;;;8.60;7.20;;;11.20;78.10;;;;;;5006430;28;20464;-46
2021/05/06 15:29:37;;;;;;;10.93;7.50;;;11.20;78.70;;;;;;5010713;28;20513;-46
2021/05/06 15:32:03;;;;;;;9.97;8.97;;;11.10;78.80;;;;;;5005135;28;20487;-46
2021/05/06 15:34:29;;;;;;;9.17;7.20;;;11.10;79.30;;;;;;5008267;28;20497;-46
2021/05/06 15:37:04;;;;;;;8.10;7.30;;;11.10;79.40;;;;;;5009104;28;20542;-46
2021/05/06 15:39:30;;;;;;;8.77;6.83;;;11.00;79.60;;;;;;5008561;28;20745;-46
2021/05/06 15:41:56;;;;;;;8.23;7.10;;;11.10;79.40;;;;;;5010928;28;20452;-46
2021/05/06 15:44:23;;;;;;;8.37;6.57;;;11.00;79.90;;;;;;5006270;28;20521;-46
2021/05/06 15:46:49;;;;;;;9.50;6.37;;;11.00;80.10;;;;;;5008764;28;20836;-46
2021/05/06 15:49:15;;;;;;;9.07;6.20;;;10.90;80.40;;;;;;5009180;28;20464;-46
2021/05/06 15:51:43;;;;;;;7.40;6.60;;;10.90;80.80;;;;;;5006544;28;20988;-46
2021/05/06 15:54:15;;;;;;;12.00;5.90;;;10.90;80.90;;;;;;5014085;28;20503;-46
2021/05/06 15:56:42;;;;;;;6.70;5.67;;;10.80;80.60;;;;;;5008762;28;20463;-46
2021/05/06 15:59:08;;;;;;;7.63;6.17;;;10.80;80.90;;;;;;5009049;28;20533;-47
2021/05/06 16:01:34;;;;;;;7.43;5.83;;;10.80;80.90;;;;;;5007020;28;20535;-46
2021/05/06 16:04:05;;;;;;;5.17;4.67;;;10.80;81.70;;;;;;5010508;28;20529;-46
2021/05/06 16:06:31;;;;;;;5.07;4.20;;;10.80;81.70;;;;;;5004726;28;20553;-47
2021/05/06 16:08:57;;;;;;;5.73;3.07;;;10.80;82.00;;;;;;5006801;28;20472;-46
2021/05/06 16:11:24;;;;;;;2.73;2.20;;;10.80;82.30;;;;;;5006911;28;20461;-46
2021/05/06 16:13:51;;;;;;;2.10;1.90;;;10.80;82.00;;;;;;5003248;28;20528;-46
2021/05/06 16:16:18;;;;;;;1.97;1.77;;;10.80;82.30;;;;;;5002758;28;20499;-46
2021/05/06 16:18:46;;;;;;;2.33;2.13;;;10.80;82.00;;;;;;5004150;28;20468;-46
2021/05/06 16:21:14;;;;;;;2.77;1.90;;;10.80;81.50;;;;;;5011294;28;20531;-47
2021/05/06 16:23:41;;;;;;;2.20;2.00;;;10.80;81.70;;;;;;5012033;28;20460;-46
2021/05/06 16:26:10;;;;;;;3.27;1.83;;;10.80;82.00;;;;;;5035716;28;20525;-46